Time;durP1;ratioP1;P1;durP2;ratioP2;P2;SDS_P1;SDS_P2;PMS_P1;PMS_P2;Temp;Humidity;BMP_temperature;BMP_pressure;BME280_temperature;BME280_humidity;BME280_pressure;Samples;Min_cycle;Max_cycle;Signal;HPM_P1;HPM_P2
2022/04/28 00:07:32;;;;;;;0.20;0.10;;;14.80;99.90;;;;;;25546758;23;20151;-72
2022/04/28 00:17:37;;;;;;;0.20;0.00;;;14.60;99.90;;;;;;25549061;23;20197;-71
2022/04/28 00:27:40;;;;;;;0.20;0.10;;;14.40;99.90;;;;;;25546661;23;20163;-73
2022/04/28 00:37:46;;;;;;;0.20;0.10;;;14.20;99.90;;;;;;25546368;23;20187;-71
2022/04/28 00:58:12;;;;;;;0.20;0.20;;;13.60;99.90;;;;;;25544204;23;20210;-71
2022/04/28 01:08:17;;;;;;;0.20;0.10;;;13.50;99.90;;;;;;25543397;23;20175;-72
2022/04/28 01:18:23;;;;;;;0.20;0.10;;;13.50;99.90;;;;;;25546392;23;20199;-73
2022/04/28 01:28:29;;;;;;;0.20;0.10;;;13.70;99.90;;;;;;25518365;23;20170;-72
2022/04/28 01:38:34;;;;;;;0.20;0.00;;;13.60;99.90;;;;;;25545636;23;20190;-73
2022/04/28 01:48:39;;;;;;;0.20;0.10;;;13.40;99.90;;;;;;25517557;23;20199;-71
2022/04/28 01:58:42;;;;;;;0.20;0.10;;;13.40;99.90;;;;;;25541643;23;20202;-72
2022/04/28 02:08:48;;;;;;;0.20;0.10;;;13.60;99.90;;;;;;25541339;23;20214;-71
2022/04/28 02:18:51;;;;;;;0.20;0.03;;;13.80;99.90;;;;;;25543069;23;20218;-72
2022/04/28 02:28:57;;;;;;;0.20;0.10;;;14.00;99.90;;;;;;25540681;23;20250;-72
2022/04/28 02:39:00;;;;;;;0.20;0.10;;;13.90;99.90;;;;;;25541852;23;20190;-71
2022/04/28 02:49:06;;;;;;;0.20;0.10;;;13.80;99.90;;;;;;25514555;23;20194;-72
2022/04/28 02:59:10;;;;;;;0.20;0.00;;;13.60;99.90;;;;;;25540884;23;20198;-72
2022/04/28 03:19:37;;;;;;;0.20;0.10;;;13.90;99.90;;;;;;25551826;23;20182;-71
2022/04/28 03:29:42;;;;;;;0.20;0.10;;;14.30;99.90;;;;;;25548438;23;20170;-72
2022/04/28 03:39:46;;;;;;;0.20;0.10;;;14.50;99.90;;;;;;25548657;23;20186;-71
2022/04/28 03:49:51;;;;;;;0.20;0.10;;;14.40;99.90;;;;;;25547127;23;20251;-71
2022/04/28 03:59:57;;;;;;;0.20;0.10;;;14.50;99.90;;;;;;25522872;23;20207;-72
2022/04/28 04:10:02;;;;;;;0.20;0.10;;;14.10;99.90;;;;;;25545740;23;20178;-71
2022/04/28 04:20:07;;;;;;;0.20;0.10;;;14.00;99.90;;;;;;25546571;23;20202;-72
2022/04/28 04:40:35;;;;;;;0.20;0.10;;;13.70;99.90;;;;;;25545148;23;20190;-72
2022/04/28 04:50:41;;;;;;;0.20;0.10;;;13.70;99.90;;;;;;25543386;23;20206;-73
2022/04/28 05:00:45;;;;;;;0.20;0.10;;;13.70;99.90;;;;;;25543752;23;20596;-70
2022/04/28 05:10:51;;;;;;;0.20;0.00;;;13.60;99.90;;;;;;25535275;23;20167;-70
2022/04/28 05:20:55;;;;;;;0.20;0.00;;;14.00;99.90;;;;;;25541618;23;20198;-70
2022/04/28 05:31:00;;;;;;;0.20;0.03;;;14.10;99.90;;;;;;25536157;23;20186;-70
2022/04/28 05:41:05;;;;;;;0.20;0.10;;;14.30;99.90;;;;;;25540628;23;20279;-72
2022/04/28 05:51:11;;;;;;;0.20;0.10;;;14.70;99.90;;;;;;25536314;23;20191;-71
2022/04/28 06:01:15;;;;;;;0.20;0.03;;;15.30;99.90;;;;;;25527749;23;20262;-71
2022/04/28 06:11:21;;;;;;;0.20;0.10;;;15.60;99.90;;;;;;25500556;23;20171;-69
2022/04/28 06:21:25;;;;;;;0.20;0.10;;;15.90;99.90;;;;;;25531587;23;20206;-66
2022/04/28 06:31:30;;;;;;;0.20;0.10;;;16.40;99.90;;;;;;25511114;23;20824;-70
2022/04/28 06:41:34;;;;;;;0.20;0.10;;;16.50;99.90;;;;;;25534703;23;20233;-70
2022/04/28 06:51:39;;;;;;;0.20;0.00;;;16.80;99.90;;;;;;25514197;23;20245;-71
2022/04/28 07:01:43;;;;;;;0.20;0.10;;;17.10;99.90;;;;;;25513023;23;20221;-72
2022/04/28 07:11:49;;;;;;;0.20;0.10;;;17.40;99.90;;;;;;25538655;23;20171;-71
2022/04/28 07:21:52;;;;;;;0.20;0.00;;;17.50;99.90;;;;;;25533331;23;20182;-71
2022/04/28 07:31:57;;;;;;;0.20;0.10;;;17.60;99.90;;;;;;25514749;23;20183;-69
2022/04/28 07:42:01;;;;;;;0.20;0.10;;;17.50;99.90;;;;;;25534277;23;20249;-70
2022/04/28 07:52:08;;;;;;;0.83;0.83;;;17.60;99.90;;;;;;25532959;23;20195;-71
2022/04/28 08:02:14;;;;;;;0.30;0.30;;;17.20;99.90;;;;;;25502743;23;20225;-70
2022/04/28 08:12:19;;;;;;;0.20;0.10;;;17.40;99.90;;;;;;25529480;23;20182;-70
2022/04/28 08:22:43;;;;;;;0.20;0.10;;;17.60;99.90;;;;;;25527562;23;20429;-70
2022/04/28 08:32:48;;;;;;;0.20;0.10;;;18.30;99.90;;;;;;25527152;23;20182;-70
2022/04/28 08:42:53;;;;;;;0.20;0.10;;;18.80;99.90;;;;;;25527727;23;20198;-69
2022/04/28 08:53:00;;;;;;;0.20;0.10;;;19.30;99.90;;;;;;25528772;23;20599;-74
2022/04/28 09:03:04;;;;;;;0.20;0.10;;;19.00;99.90;;;;;;25522676;23;20190;-72
2022/04/28 09:23:27;;;;;;;0.20;0.00;;;18.80;99.90;;;;;;25460899;23;20213;-75
2022/04/28 09:33:33;;;;;;;0.20;0.10;;;19.20;99.90;;;;;;25523850;23;20190;-75
2022/04/28 09:43:37;;;;;;;0.20;0.10;;;19.40;99.90;;;;;;25524410;23;20194;-75
2022/04/28 09:53:44;;;;;;;0.20;0.10;;;19.80;99.90;;;;;;25523956;23;20195;-72
2022/04/28 10:03:48;;;;;;;0.20;0.00;;;20.50;99.90;;;;;;25517867;23;20206;-73
2022/04/28 10:13:54;;;;;;;0.20;0.10;;;20.90;99.90;;;;;;25513578;23;20194;-75
2022/04/28 10:34:25;;;;;;;0.20;0.10;;;20.60;99.90;;;;;;25521423;23;20205;-72
2022/04/28 10:44:32;;;;;;;0.60;0.40;;;20.80;99.90;;;;;;25495134;23;20214;-74
2022/04/28 10:54:47;;;;;;;0.20;0.10;;;20.80;99.90;;;;;;25520965;23;20383;-75
2022/04/28 11:04:52;;;;;;;0.20;0.00;;;20.30;99.90;;;;;;25517634;23;20191;-74
2022/04/28 11:15:02;;;;;;;0.20;0.10;;;20.10;99.90;;;;;;25518260;23;20194;-78
2022/04/28 11:25:11;;;;;;;0.20;0.10;;;21.10;99.90;;;;;;25519401;23;20345;-71
2022/04/28 11:35:16;;;;;;;0.20;0.10;;;21.30;99.90;;;;;;25491056;23;20210;-70
2022/04/28 11:45:22;;;;;;;0.20;0.10;;;22.00;99.90;;;;;;25512491;23;20198;-68
2022/04/28 11:55:31;;;;;;;0.20;0.10;;;21.10;99.90;;;;;;25489722;23;20186;-69
2022/04/28 12:05:35;;;;;;;0.20;0.10;;;21.60;99.90;;;;;;25516030;23;20194;-72
2022/04/28 12:15:41;;;;;;;0.20;0.00;;;21.90;99.90;;;;;;25488758;23;20277;-71
2022/04/28 12:25:44;;;;;;;0.20;0.00;;;22.80;99.90;;;;;;25511871;23;20159;-72
2022/04/28 12:35:50;;;;;;;0.20;0.10;;;22.40;99.90;;;;;;25506989;23;20203;-71
2022/04/28 12:45:56;;;;;;;0.20;0.00;;;22.40;99.90;;;;;;25513209;23;20206;-72
2022/04/28 12:56:07;;;;;;;0.20;0.00;;;21.90;99.90;;;;;;25513553;23;20225;-71
2022/04/28 13:06:10;;;;;;;0.20;0.03;;;22.40;99.90;;;;;;25490886;23;20393;-73
2022/04/28 13:16:19;;;;;;;0.20;0.10;;;23.90;99.90;;;;;;25513810;23;20190;-72
2022/04/28 13:26:25;;;;;;;0.20;0.10;;;25.00;99.90;;;;;;25528628;23;20159;-73
2022/04/28 13:36:30;;;;;;;0.20;0.00;;;24.70;99.90;;;;;;25514766;23;20191;-73
2022/04/28 13:46:34;;;;;;;0.20;0.00;;;25.90;99.90;;;;;;25532350;23;20524;-72
2022/04/28 13:56:39;;;;;;;0.20;0.10;;;25.60;99.90;;;;;;25527779;23;20238;-70
2022/04/28 14:06:43;;;;;;;0.20;0.00;;;26.00;99.90;;;;;;25527681;23;20167;-72
2022/04/28 14:16:49;;;;;;;0.32;0.17;;;26.20;99.90;;;;;;25528674;23;20194;-72
2022/04/28 14:26:53;;;;;;;0.20;0.00;;;26.70;99.90;;;;;;25529555;23;20178;-72
2022/04/28 14:37:06;;;;;;;0.20;0.10;;;26.50;99.90;;;;;;25528748;23;20183;-72
2022/04/28 14:47:10;;;;;;;0.20;0.00;;;28.00;99.90;;;;;;25499855;23;20199;-68
2022/04/28 14:57:15;;;;;;;0.20;0.00;;;26.80;99.90;;;;;;25524899;23;20210;-75
2022/04/28 15:07:20;;;;;;;0.20;0.00;;;26.90;99.90;;;;;;25527706;23;20167;-71
2022/04/28 15:17:29;;;;;;;0.20;0.00;;;25.90;99.90;;;;;;25504212;23;20222;-71
2022/04/28 15:27:32;;;;;;;0.20;0.00;;;25.60;99.90;;;;;;25505167;23;20178;-68
2022/04/28 15:37:38;;;;;;;0.20;0.10;;;24.90;99.90;;;;;;25536662;23;20209;-69
2022/04/28 18:15:41;;;;;;;0.20;0.00;;;19.60;99.90;;;;;;25423070;23;20226;-70
2022/04/28 18:25:46;;;;;;;0.20;0.10;;;19.30;99.90;;;;;;25411606;23;20156;-71
2022/04/28 18:46:13;;;;;;;0.20;0.10;;;18.60;99.90;;;;;;25420733;23;20167;-71
2022/04/28 18:56:18;;;;;;;0.20;0.00;;;18.70;99.90;;;;;;25417130;23;20191;-71
2022/04/28 19:06:23;;;;;;;0.20;0.10;;;18.50;99.90;;;;;;25417164;23;20182;-71
2022/04/28 19:16:28;;;;;;;0.20;0.00;;;18.30;99.90;;;;;;25416674;23;20211;-71
2022/04/28 19:26:32;;;;;;;0.20;0.10;;;18.30;99.90;;;;;;25420513;23;20156;-70
2022/04/28 19:36:38;;;;;;;0.20;0.00;;;18.10;99.90;;;;;;25420022;23;20188;-72
2022/04/28 19:46:42;;;;;;;0.20;0.10;;;17.80;99.90;;;;;;25417645;23;20225;-71
2022/04/28 19:56:50;;;;;;;0.20;0.10;;;17.30;99.90;;;;;;25418065;23;20231;-70
2022/04/28 20:06:54;;;;;;;0.20;0.10;;;17.20;99.90;;;;;;25422529;23;20168;-71
2022/04/28 20:16:59;;;;;;;0.20;0.10;;;17.00;99.90;;;;;;25545427;23;20189;-73
2022/04/28 20:27:07;;;;;;;0.20;0.10;;;16.80;99.90;;;;;;25532743;23;20167;-73
2022/04/28 20:37:12;;;;;;;0.20;0.10;;;16.80;99.90;;;;;;25531317;23;20505;-72
2022/04/28 20:47:16;;;;;;;0.20;0.10;;;16.60;99.90;;;;;;25528773;23;20163;-73
2022/04/28 20:57:22;;;;;;;0.20;0.10;;;16.00;99.90;;;;;;25532136;23;20206;-72
2022/04/28 21:07:27;;;;;;;0.20;0.10;;;16.00;99.90;;;;;;25529343;23;20191;-71
2022/04/28 21:17:32;;;;;;;0.20;0.10;;;16.20;99.90;;;;;;25498025;23;20202;-73
2022/04/28 21:27:36;;;;;;;0.20;0.10;;;16.30;99.90;;;;;;25519127;23;20170;-72
2022/04/28 21:37:42;;;;;;;0.20;0.10;;;16.40;99.90;;;;;;25516564;23;20187;-73
2022/04/28 21:47:46;;;;;;;0.20;0.10;;;16.10;99.90;;;;;;25519326;23;20343;-72
2022/04/28 21:57:53;;;;;;;0.20;0.10;;;16.10;99.90;;;;;;25517097;23;20202;-72
2022/04/28 22:18:20;;;;;;;0.20;0.10;;;15.70;99.90;;;;;;25524741;23;20827;-73
2022/04/28 22:28:24;;;;;;;0.20;0.00;;;15.60;99.90;;;;;;25517581;23;20170;-72
2022/04/28 22:38:29;;;;;;;0.20;0.00;;;15.50;99.90;;;;;;25517110;23;20190;-71
2022/04/28 22:48:33;;;;;;;0.20;0.00;;;15.50;99.90;;;;;;25489845;23;20175;-72
2022/04/28 22:58:39;;;;;;;0.20;0.10;;;15.50;99.90;;;;;;25516295;23;20221;-71
2022/04/28 23:08:43;;;;;;;0.20;0.00;;;15.10;99.90;;;;;;25515315;23;20191;-71
2022/04/28 23:18:48;;;;;;;0.20;0.10;;;14.70;99.90;;;;;;25516858;23;20202;-73
2022/04/28 23:28:54;;;;;;;0.20;0.10;;;14.80;99.90;;;;;;25522358;23;20376;-71
2022/04/28 23:39:00;;;;;;;0.20;0.00;;;14.70;99.90;;;;;;25494689;23;20197;-72
2022/04/28 23:49:04;;;;;;;0.20;0.00;;;14.40;99.90;;;;;;25496603;23;20493;-72
2022/04/28 23:59:09;;;;;;;0.20;0.10;;;14.70;99.90;;;;;;25522198;23;20260;-71
